»·PEaware :: N212MH S36-KORS

N212MH :: S36-KORS

FLIGHT INFORMATION

Flight Status: Arrived
Operator: Privately registered:
United States
More flights under this callsign
Pilot: Erik A. (17503)
Aircraft: AERMACCHI WARRIOR
(F260)
More flights by this aircraft type
Origin: S36 Norman Grier Field
United States
Destination: KORS Orcas Island
United States
More flights between these airports :: More routes between these airports
Route:
File this flight plan on PilotEdge
Remarks: Alphabet Challenge Washington Leg #14
Altitude:
(Current/Filed)
4,500ft
Speed:
(Current/Filed)
130kts
Departed: 29-Aug-20 01:29 PM
Arrived: 29-Aug-20 04:14 PM
Distance/Time
Traveled:
88nm/2:45
Distance/Time
To Go:
Arrived

Flight Plot

Page will automatically refresh every two minutes.

Flight plan parsing failed; only flown route is shown


Map Options




Map Legend


Flown Route
Filed Route
Departure Airport
Arrival Airport
Navaid (VOR, NDB)
Fix

Horizontal Profiles

Position Reports

Time Latitude Longitude Heading Altitude Ground
Speed
29-Aug-20 12:58 47.340164 -122.103767 171 475ft 0kts
29-Aug-20 12:59 47.340164 -122.103767 171 475ft 0kts
29-Aug-20 13:00 47.340164 -122.103767 171 475ft 0kts
29-Aug-20 13:01 47.340164 -122.103767 171 475ft 0kts
29-Aug-20 13:02 47.340164 -122.103767 171 475ft 0kts
29-Aug-20 13:03 47.340164 -122.103767 171 475ft 0kts
29-Aug-20 13:04 47.340164 -122.103767 171 475ft 0kts
29-Aug-20 13:05 47.340164 -122.103767 171 475ft 0kts
29-Aug-20 13:06 47.340164 -122.103767 171 475ft 0kts
29-Aug-20 13:07 47.340164 -122.103767 171 475ft 0kts
29-Aug-20 13:08 47.340164 -122.103767 171 475ft 0kts
29-Aug-20 13:09 47.340164 -122.103767 171 475ft 0kts
29-Aug-20 13:10 47.340164 -122.103767 171 475ft 0kts
29-Aug-20 13:11 47.340164 -122.103767 171 475ft 0kts
29-Aug-20 13:12 47.340164 -122.103767 171 475ft 0kts
29-Aug-20 13:13 47.340164 -122.103767 171 475ft 0kts
29-Aug-20 13:14 47.340164 -122.103767 171 475ft 0kts
29-Aug-20 13:15 47.340164 -122.103767 171 475ft 0kts
29-Aug-20 13:16 47.340164 -122.103767 171 475ft 0kts
29-Aug-20 13:17 47.340164 -122.103767 171 475ft 0kts
29-Aug-20 13:18 47.340164 -122.103767 171 475ft 0kts
29-Aug-20 13:19 47.340164 -122.103767 171 475ft 0kts
29-Aug-20 13:20 47.340164 -122.103767 171 475ft 0kts
29-Aug-20 13:21 47.340164 -122.103767 171 475ft 0kts
29-Aug-20 13:22 47.340164 -122.103767 171 475ft 0kts
29-Aug-20 13:23 47.340164 -122.103767 171 475ft 0kts
29-Aug-20 13:24 47.340164 -122.103767 171 475ft 0kts
29-Aug-20 13:25 47.340130 -122.103762 181 475ft 1kts
29-Aug-20 13:26 47.341294 -122.104240 352 475ft 0kts
29-Aug-20 13:27 47.341412 -122.104275 320 475ft 0kts
29-Aug-20 13:28 47.333836 -122.103050 174 564ft 99kts
29-Aug-20 13:29 47.332642 -122.086114 354 1675ft 117kts
29-Aug-20 13:30 47.366506 -122.101673 340 1933ft 137kts
29-Aug-20 13:31 47.403215 -122.119731 341 2114ft 133kts
29-Aug-20 13:32 47.436881 -122.133410 346 2599ft 127kts
29-Aug-20 13:33 47.466680 -122.159583 294 2795ft 139kts
29-Aug-20 13:34 47.480264 -122.216887 289 2233ft 155kts
29-Aug-20 13:35 47.503294 -122.269264 311 722ft 130kts
29-Aug-20 13:36 47.523318 -122.296857 330 31ft 88kts
29-Aug-20 13:37 47.553007 -122.319054 345 775ft 127kts
29-Aug-20 13:38 47.584737 -122.289959 43 1210ft 163kts
29-Aug-20 13:39 47.623598 -122.255186 18 1440ft 167kts
29-Aug-20 13:40 47.665951 -122.232962 16 1236ft 155kts
29-Aug-20 13:41 47.701219 -122.205399 47 1329ft 143kts
29-Aug-20 13:42 47.718544 -122.164378 59 2029ft 112kts
29-Aug-20 13:43 47.745114 -122.141744 11 2097ft 128kts
29-Aug-20 13:44 47.779023 -122.129296 41 1990ft 141kts
29-Aug-20 13:45 47.811198 -122.095002 25 1873ft 142kts
29-Aug-20 13:46 47.847567 -122.078296 7 1921ft 137kts
29-Aug-20 13:47 47.885664 -122.079462 351 1912ft 137kts
29-Aug-20 13:48 47.920943 -122.090655 346 2205ft 128kts
29-Aug-20 13:50 47.954253 -122.107034 334 2430ft 130kts
29-Aug-20 13:51 47.987511 -122.127472 351 2616ft 130kts
29-Aug-20 13:52 48.018585 -122.126508 341 2431ft 151kts
29-Aug-20 13:53 48.051835 -122.144177 347 2752ft 129kts
29-Aug-20 13:54 48.088795 -122.152062 0 2757ft 136kts
29-Aug-20 13:55 48.126253 -122.147307 4 2786ft 136kts
29-Aug-20 13:56 48.164206 -122.143529 1 2794ft 136kts
29-Aug-20 13:57 48.201398 -122.139892 355 2910ft 129kts
29-Aug-20 13:58 48.237559 -122.149097 348 2949ft 131kts
29-Aug-20 13:59 48.272935 -122.164163 345 2921ft 136kts
29-Aug-20 14:00 48.309727 -122.178046 344 2890ft 132kts
29-Aug-20 14:01 48.345154 -122.194278 349 2824ft 136kts
29-Aug-20 14:02 48.382676 -122.196538 352 2764ft 134kts
29-Aug-20 14:03 48.419656 -122.199827 1 2709ft 133kts
29-Aug-20 14:04 48.456560 -122.202957 349 2613ft 133kts
29-Aug-20 14:05 48.492281 -122.215682 339 2504ft 133kts
29-Aug-20 14:05 48.521832 -122.229568 344 2444ft 134kts
29-Aug-20 14:07 48.565025 -122.235056 3 2519ft 134kts
29-Aug-20 14:08 48.601898 -122.224190 11 2244ft 135kts
29-Aug-20 14:08 48.629866 -122.212583 18 2064ft 115kts
29-Aug-20 14:09 48.655109 -122.195962 18 1731ft 92kts
29-Aug-20 14:11 48.682621 -122.183912 4 1363ft 84kts
29-Aug-20 14:11 48.702576 -122.188568 335 748ft 91kts
29-Aug-20 14:12 48.725505 -122.201416 343 670ft 107kts
29-Aug-20 14:13 48.756065 -122.206415 354 1360ft 121kts
29-Aug-20 14:14 48.787227 -122.191589 1 1401ft 100kts
29-Aug-20 14:15 48.812677 -122.202795 320 907ft 98kts
29-Aug-20 14:16 48.829190 -122.234751 291 1157ft 105kts
29-Aug-20 14:17 48.834233 -122.276836 195 1143ft 112kts
29-Aug-20 14:18 48.839515 -122.251955 317 1318ft 112kts
29-Aug-20 14:19 48.832533 -122.275870 148 1123ft 114kts
29-Aug-20 14:20 48.835006 -122.258256 259 438ft 93kts
29-Aug-20 14:21 48.850003 -122.288348 329 851ft 117kts
29-Aug-20 14:22 48.872835 -122.301921 352 957ft 78kts
29-Aug-20 14:23 48.891804 -122.317249 285 612ft 83kts
29-Aug-20 14:24 48.880613 -122.328447 111 494ft 91kts
29-Aug-20 14:25 48.899548 -122.326188 235 446ft 74kts
29-Aug-20 14:26 48.884260 -122.328365 138 119ft 8kts
29-Aug-20 14:27 48.884264 -122.328229 268 119ft 0kts
29-Aug-20 14:28 48.884264 -122.328229 268 119ft 0kts
29-Aug-20 14:29 48.884264 -122.328229 268 119ft 0kts
29-Aug-20 14:30 48.884264 -122.328229 268 119ft 0kts
29-Aug-20 14:31 48.884264 -122.328229 268 119ft 0kts
29-Aug-20 14:32 48.884264 -122.328229 268 119ft 0kts
29-Aug-20 14:33 48.884264 -122.328229 268 119ft 0kts
29-Aug-20 14:34 48.884264 -122.328229 268 119ft 0kts
29-Aug-20 14:35 48.884264 -122.328229 268 119ft 0kts
29-Aug-20 14:36 48.884264 -122.328229 268 119ft 0kts
29-Aug-20 14:37 48.884264 -122.328229 268 119ft 0kts
29-Aug-20 14:38 48.884264 -122.328229 268 119ft 0kts
29-Aug-20 14:39 48.884264 -122.328229 268 119ft 0kts
29-Aug-20 14:40 48.884264 -122.328229 268 119ft 0kts
29-Aug-20 14:41 48.884264 -122.328229 268 119ft 0kts
29-Aug-20 14:42 48.884264 -122.328229 268 119ft 0kts
29-Aug-20 14:43 48.884264 -122.328229 268 119ft 0kts
29-Aug-20 14:44 48.884264 -122.328229 268 119ft 0kts
29-Aug-20 14:45 48.884264 -122.328229 268 119ft 0kts
29-Aug-20 14:46 48.884264 -122.328229 268 119ft 0kts
29-Aug-20 14:47 48.884264 -122.328229 268 119ft 0kts
29-Aug-20 14:48 48.884264 -122.328229 268 119ft 0kts
29-Aug-20 14:49 48.884264 -122.328229 268 119ft 0kts
29-Aug-20 14:50 48.884264 -122.328229 268 119ft 0kts
29-Aug-20 14:51 48.884264 -122.328229 268 119ft 0kts
29-Aug-20 14:52 48.884264 -122.328229 268 119ft 0kts
29-Aug-20 14:53 48.884264 -122.328229 268 119ft 0kts
29-Aug-20 14:54 48.884253 -122.328446 263 119ft 8kts
29-Aug-20 14:55 48.888415 -122.328666 12 115ft 17kts
29-Aug-20 14:56 48.888779 -122.328644 180 114ft 0kts
29-Aug-20 14:57 48.885242 -122.328600 184 154ft 73kts
29-Aug-20 14:58 48.887194 -122.345383 341 1078ft 103kts
29-Aug-20 14:59 48.913771 -122.373165 314 1601ft 136kts
29-Aug-20 15:00 48.944335 -122.399417 346 1359ft 121kts
29-Aug-20 15:01 48.955128 -122.428242 265 624ft 95kts
29-Aug-20 15:02 48.955909 -122.459586 274 110ft 35kts
29-Aug-20 15:03 48.955774 -122.460575 92 110ft 13kts
29-Aug-20 15:04 48.955648 -122.455524 91 110ft 0kts
29-Aug-20 15:05 48.955648 -122.455524 91 110ft 0kts
29-Aug-20 15:06 48.955648 -122.455524 91 110ft 0kts
29-Aug-20 15:07 48.955648 -122.455524 91 110ft 0kts
29-Aug-20 15:08 48.955648 -122.455524 91 110ft 0kts
29-Aug-20 15:09 48.955648 -122.455524 91 110ft 0kts
29-Aug-20 15:10 48.955648 -122.455524 91 110ft 0kts
29-Aug-20 15:11 48.955648 -122.455524 91 110ft 0kts
29-Aug-20 15:12 48.955648 -122.455524 91 110ft 0kts
29-Aug-20 15:13 48.955648 -122.455524 91 110ft 0kts
29-Aug-20 15:14 48.955648 -122.455524 91 110ft 0kts
29-Aug-20 15:15 48.955648 -122.455524 91 110ft 0kts
29-Aug-20 15:16 48.955716 -122.455143 6 110ft 0kts
29-Aug-20 15:17 48.957107 -122.468002 277 346ft 95kts
29-Aug-20 15:18 48.946014 -122.505488 228 691ft 83kts
29-Aug-20 15:19 48.942681 -122.539189 279 634ft 88kts
29-Aug-20 15:20 48.967472 -122.548916 314 645ft 96kts
29-Aug-20 15:21 48.956223 -122.564792 193 770ft 78kts
29-Aug-20 15:22 48.934497 -122.578086 170 842ft 98kts
29-Aug-20 15:23 48.923743 -122.543276 41 900ft 99kts
29-Aug-20 15:24 48.929456 -122.559840 243 739ft 104kts
29-Aug-20 15:25 48.902442 -122.568759 189 651ft 112kts
29-Aug-20 15:26 48.907812 -122.564147 347 71ft 65kts
29-Aug-20 15:27 48.922303 -122.582801 261 962ft 105kts
29-Aug-20 15:28 48.910498 -122.623238 250 2099ft 109kts
29-Aug-20 15:29 48.899064 -122.673918 259 2467ft 144kts
29-Aug-20 15:30 48.894241 -122.739327 272 2543ft 153kts
29-Aug-20 15:31 48.906084 -122.805546 287 2424ft 169kts
29-Aug-20 15:32 48.920454 -122.875251 284 2160ft 177kts
29-Aug-20 15:33 48.931384 -122.949134 281 1656ft 181kts
29-Aug-20 15:34 48.944003 -123.022588 286 1188ft 180kts
29-Aug-20 15:35 48.967005 -123.082096 13 640ft 193kts
29-Aug-20 15:36 48.971620 -123.094389 182 1310ft 103kts
29-Aug-20 15:37 48.972735 -123.079283 354 131ft 88kts
29-Aug-20 15:38 48.981744 -123.093598 186 758ft 116kts
29-Aug-20 15:39 48.966889 -123.058376 105 1525ft 131kts
29-Aug-20 15:40 48.956587 -123.003464 107 2068ft 146kts
29-Aug-20 15:41 48.922692 -122.974854 171 2343ft 156kts
29-Aug-20 15:42 48.878664 -122.962965 169 2547ft 169kts
29-Aug-20 15:43 48.831397 -122.949446 175 2447ft 175kts
29-Aug-20 15:44 48.785242 -122.962767 196 2407ft 171kts
29-Aug-20 15:45 48.741679 -122.994195 220 2258ft 173kts
29-Aug-20 15:46 48.700827 -123.024289 157 1474ft 183kts
29-Aug-20 15:47 48.689613 -123.004023 343 880ft 90kts
29-Aug-20 15:48 48.711434 -123.017909 336 150ft 72kts
29-Aug-20 15:50 48.722026 -123.005531 176 1224ft 110kts
29-Aug-20 15:51 48.700202 -123.002660 119 1235ft 109kts
29-Aug-20 15:52 48.687240 -122.961609 95 1346ft 117kts
29-Aug-20 15:53 48.693733 -122.914981 65 1537ft 112kts
29-Aug-20 15:54 48.713523 -122.881944 12 1685ft 112kts
29-Aug-20 15:55 48.718550 -122.911617 216 1755ft 117kts
29-Aug-20 15:56 48.687365 -122.931515 204 1859ft 120kts
29-Aug-20 15:57 48.656136 -122.951459 202 1978ft 121kts
29-Aug-20 15:58 48.627221 -122.976344 211 2142ft 119kts
29-Aug-20 15:59 48.607362 -122.958170 49 2107ft 128kts
29-Aug-20 16:00 48.637452 -122.949068 319 2273ft 121kts
29-Aug-20 16:01 48.624834 -122.983178 258 2256ft 118kts
29-Aug-20 16:02 48.630293 -123.009231 28 2437ft 114kts
29-Aug-20 16:03 48.630092 -122.968692 150 2581ft 114kts
29-Aug-20 16:04 48.603160 -122.957470 212 2794ft 103kts
29-Aug-20 16:05 48.613706 -122.986989 7 2371ft 135kts
29-Aug-20 16:06 48.636930 -122.953726 101 2517ft 129kts
29-Aug-20 16:07 48.634872 -122.964659 209 2145ft 134kts
29-Aug-20 16:08 48.619837 -122.947365 343 1648ft 157kts
29-Aug-20 16:08 48.617276 -122.965775 135 1106ft 97kts
29-Aug-20 16:10 48.636765 -122.940150 15 648ft 127kts
29-Aug-20 16:11 48.671147 -122.905386 23 897ft 178kts
29-Aug-20 16:11 48.709673 -122.897371 2 626ft 141kts
29-Aug-20 16:12 48.712705 -122.910559 179 40ft 74kts
29-Aug-20 16:14 48.706188 -122.909562 167 33ft 0kts
29-Aug-20 16:14 48.706188 -122.909562 167 33ft 0kts
29-Aug-20 16:15 48.706188 -122.909562 167 33ft 0kts
29-Aug-20 16:16 48.706188 -122.909562 167 33ft 0kts
29-Aug-20 16:17 48.706188 -122.909562 167 33ft 0kts
29-Aug-20 16:18 48.706188 -122.909562 167 33ft 0kts
29-Aug-20 16:19 48.706188 -122.909562 167 33ft 0kts
29-Aug-20 16:20 48.706188 -122.909562 167 33ft 0kts
29-Aug-20 16:21 48.706188 -122.909562 167 33ft 0kts
29-Aug-20 16:22 48.706188 -122.909562 167 33ft 0kts
29-Aug-20 16:23 48.706188 -122.909562 167 33ft 0kts
29-Aug-20 16:24 48.706188 -122.909562 167 33ft 0kts
29-Aug-20 16:25 48.706188 -122.909562 167 33ft 0kts
29-Aug-20 16:26 48.706188 -122.909562 167 33ft 0kts
29-Aug-20 16:27 48.706188 -122.909562 167 33ft 0kts

Navigation Log

Ident Type
Flight plan parsing failed, navigation log unavailable